PWM weather

Portland International Jetport Airport
Portland, Maine, United States

Public forecast

Using degrees Fahrenheit for public forecast. Weather courtesy of forecast.io.

METAR (pilot weather report)

Retrieved 2019/07/16 14:51 UTC (1 hour ago):

KPWM 161451Z 17007KT 10SM FEW045 FEW250 26/15 A3004 RMK AO2 SLP172 T02610150 56008

TAF (pilot weather forecast)

Retrieved 2019/07/16 12:30 UTC (3 hours ago):

TAF KPWM 161128Z 1612/1712 30003KT P6SM SCT250 FM161600 17010KT P6SM SCT070